Time;durP1;ratioP1;P1;durP2;ratioP2;P2;SDS_P1;SDS_P2;PMS_P1;PMS_P2;Temp;Humidity;BMP_temperature;BMP_pressure;BME280_temperature;BME280_humidity;BME280_pressure;Samples;Min_cycle;Max_cycle;Signal;HPM_P1;HPM_P2
2023/04/25 00:00:29;;;;;;;9.45;4.57;;;;;;;;;;5011046;28;20463;-76
2023/04/25 00:02:59;;;;;;;7.10;3.80;;;;;;;;;;4993754;28;20062;-76
2023/04/25 00:05:26;;;;;;;4.65;3.28;;;;;;;;;;4993435;28;20068;-78
2023/04/25 00:07:57;;;;;;;6.72;3.90;;;;;;;;;;4993740;28;20036;-75
2023/04/25 00:10:25;;;;;;;6.32;3.25;;;;;;;;;;4993258;28;20065;-76
2023/04/25 00:12:51;;;;;;;7.38;3.50;;;;;;;;;;5008528;28;20068;-76
2023/04/25 00:15:21;;;;;;;5.25;3.72;;;;;;;;;;4994019;28;20124;-75
2023/04/25 00:17:48;;;;;;;5.70;3.45;;;;;;;;;;4976282;28;20037;-75
2023/04/25 00:20:15;;;;;;;8.13;3.58;;;;;;;;;;4993847;28;20038;-77
2023/04/25 00:22:44;;;;;;;5.90;3.40;;;;;;;;;;4994067;28;20610;-76
2023/04/25 00:25:13;;;;;;;6.03;3.80;;;;;;;;;;5008685;28;20108;-78
2023/04/25 00:27:41;;;;;;;5.05;3.47;;;;;;;;;;4993923;28;20022;-78
2023/04/25 00:30:08;;;;;;;4.20;3.13;;;;;;;;;;4992042;28;20073;-77
2023/04/25 00:32:35;;;;;;;6.45;3.80;;;;;;;;;;4993013;28;20041;-77
2023/04/25 00:35:01;;;;;;;8.35;3.55;;;;;;;;;;4993487;28;20692;-77
2023/04/25 00:37:27;;;;;;;5.93;3.22;;;;;;;;;;5007422;28;20030;-77
2023/04/25 00:39:55;;;;;;;6.57;3.72;;;;;;;;;;4993100;28;20428;-78
2023/04/25 00:42:21;;;;;;;9.75;3.80;;;;;;;;;;4993798;28;20026;-74
2023/04/25 00:44:47;;;;;;;11.07;3.95;;;;;;;;;;4994287;28;20038;-77
2023/04/25 00:47:14;;;;;;;6.15;3.63;;;;;;;;;;4994979;28;20034;-78
2023/04/25 00:49:40;;;;;;;9.80;3.80;;;;;;;;;;4994537;28;20026;-77
2023/04/25 00:52:07;;;;;;;5.43;3.40;;;;;;;;;;4994946;28;20030;-76
2023/04/25 00:54:34;;;;;;;4.57;3.40;;;;;;;;;;4995034;28;20404;-77
2023/04/25 00:57:01;;;;;;;7.07;4.10;;;;;;;;;;4993562;28;20041;-77
2023/04/25 00:59:28;;;;;;;7.18;4.18;;;;;;;;;;4994750;28;20157;-77
2023/04/25 01:01:54;;;;;;;6.28;3.63;;;;;;;;;;4993138;28;20665;-77
2023/04/25 01:04:21;;;;;;;6.68;3.67;;;;;;;;;;4993878;28;20022;-76
2023/04/25 01:06:52;;;;;;;6.40;3.42;;;;;;;;;;4993250;28;20034;-77
2023/04/25 01:09:19;;;;;;;7.07;3.88;;;;;;;;;;4991796;28;20564;-78
2023/04/25 01:11:45;;;;;;;6.13;3.83;;;;;;;;;;4992242;28;20042;-76
2023/04/25 01:14:12;;;;;;;5.82;3.50;;;;;;;;;;4992807;28;20034;-76
2023/04/25 01:16:38;;;;;;;5.32;3.70;;;;;;;;;;4990827;28;20036;-77
2023/04/25 01:19:11;;;;;;;6.35;3.47;;;;;;;;;;4991802;28;20404;-77
2023/04/25 01:21:37;;;;;;;7.18;3.38;;;;;;;;;;4992908;28;20048;-78
2023/04/25 01:24:04;;;;;;;5.72;4.20;;;;;;;;;;4991634;28;20488;-79
2023/04/25 01:26:31;;;;;;;4.75;3.80;;;;;;;;;;5008146;28;20073;-78
2023/04/25 01:28:58;;;;;;;5.88;3.70;;;;;;;;;;5007511;28;20034;-76
2023/04/25 01:31:23;;;;;;;5.13;3.63;;;;;;;;;;4992557;28;20388;-77
2023/04/25 01:33:49;;;;;;;4.90;3.50;;;;;;;;;;4992609;28;20018;-77
2023/04/25 01:36:15;;;;;;;8.73;3.90;;;;;;;;;;4992648;28;20030;-78
2023/04/25 01:38:41;;;;;;;6.45;3.80;;;;;;;;;;4989590;28;20034;-77
2023/04/25 01:41:07;;;;;;;6.13;3.70;;;;;;;;;;5007889;28;20085;-78
2023/04/25 01:43:33;;;;;;;6.05;3.30;;;;;;;;;;4992642;28;20018;-76
2023/04/25 01:45:59;;;;;;;5.20;4.00;;;;;;;;;;4992476;28;20114;-76
2023/04/25 01:48:25;;;;;;;6.35;4.03;;;;;;;;;;5007676;28;20476;-77
2023/04/25 01:50:51;;;;;;;7.95;3.58;;;;;;;;;;5007634;28;20180;-76
2023/04/25 01:53:17;;;;;;;5.93;3.90;;;;;;;;;;5007494;28;20030;-77
2023/04/25 01:55:44;;;;;;;7.15;3.78;;;;;;;;;;5007699;28;20044;-77
2023/04/25 01:58:13;;;;;;;5.85;3.97;;;;;;;;;;4991129;28;20108;-76
2023/04/25 02:00:58;;;;;;;6.47;3.78;;;;;;;;;;4990762;28;20251;-76
2023/04/25 02:03:31;;;;;;;5.40;4.40;;;;;;;;;;5007443;28;20040;-77
2023/04/25 02:05:58;;;;;;;5.07;3.70;;;;;;;;;;5007522;28;20385;-78
2023/04/25 02:08:26;;;;;;;6.18;4.22;;;;;;;;;;4987468;28;20018;-76
2023/04/25 02:10:54;;;;;;;7.85;4.03;;;;;;;;;;5004553;28;20042;-78
2023/04/25 02:13:19;;;;;;;6.60;4.28;;;;;;;;;;5007260;28;20073;-76
2023/04/25 02:16:02;;;;;;;6.05;3.90;;;;;;;;;;5007157;28;20538;-78
2023/04/25 02:18:29;;;;;;;6.57;4.18;;;;;;;;;;4992208;28;20400;-77
2023/04/25 02:20:55;;;;;;;10.00;4.85;;;;;;;;;;4990557;28;20030;-76
2023/04/25 02:23:21;;;;;;;10.80;4.50;;;;;;;;;;4990863;28;20030;-79
2023/04/25 02:25:46;;;;;;;11.68;4.30;;;;;;;;;;4991953;28;20030;-77
2023/04/25 02:28:13;;;;;;;8.63;3.53;;;;;;;;;;4989448;28;20152;-77
2023/04/25 02:30:38;;;;;;;10.52;4.22;;;;;;;;;;5006822;28;20022;-77
2023/04/25 02:33:04;;;;;;;9.35;4.80;;;;;;;;;;4989956;28;20042;-76
2023/04/25 02:35:30;;;;;;;6.60;3.95;;;;;;;;;;4991962;28;20314;-76
2023/04/25 02:37:56;;;;;;;7.57;4.28;;;;;;;;;;4991745;28;20037;-76
2023/04/25 02:40:22;;;;;;;9.25;4.38;;;;;;;;;;4991566;28;20125;-77
2023/04/25 02:42:47;;;;;;;8.23;4.10;;;;;;;;;;4991817;28;20113;-77
2023/04/25 02:45:13;;;;;;;8.57;4.20;;;;;;;;;;4974487;28;20084;-76
2023/04/25 02:47:39;;;;;;;14.13;4.20;;;;;;;;;;4991754;28;20034;-77
2023/04/25 02:50:05;;;;;;;9.57;4.70;;;;;;;;;;4990221;28;20116;-76
2023/04/25 02:52:31;;;;;;;10.48;5.20;;;;;;;;;;5007007;28;20034;-76
2023/04/25 02:55:06;;;;;;;8.88;4.10;;;;;;;;;;4990279;28;20038;-76
2023/04/25 02:57:37;;;;;;;6.63;3.95;;;;;;;;;;4995915;28;20050;-77
2023/04/25 03:00:05;;;;;;;8.93;4.20;;;;;;;;;;5010295;28;20117;-75
2023/04/25 03:02:30;;;;;;;6.90;4.28;;;;;;;;;;4994870;28;20057;-78
2023/04/25 03:04:56;;;;;;;11.25;5.50;;;;;;;;;;4994109;28;20078;-77
2023/04/25 03:07:22;;;;;;;11.07;4.72;;;;;;;;;;5010641;28;20394;-75
2023/04/25 03:09:48;;;;;;;12.65;4.93;;;;;;;;;;5015496;28;20033;-77
2023/04/25 03:12:14;;;;;;;17.88;6.22;;;;;;;;;;4994347;28;20026;-76
2023/04/25 03:14:40;;;;;;;11.40;4.75;;;;;;;;;;5010514;28;20034;-76
2023/04/25 03:17:05;;;;;;;12.38;5.20;;;;;;;;;;4995310;28;20114;-77
2023/04/25 03:19:34;;;;;;;12.82;4.80;;;;;;;;;;5010011;28;20100;-77
2023/04/25 03:22:00;;;;;;;12.05;5.28;;;;;;;;;;5010021;28;20053;-75
2023/04/25 03:24:27;;;;;;;9.27;5.20;;;;;;;;;;4993879;28;20057;-76
2023/04/25 03:26:52;;;;;;;10.57;5.03;;;;;;;;;;5010242;28;20054;-76
2023/04/25 03:29:18;;;;;;;9.95;5.10;;;;;;;;;;5009856;28;20034;-76
2023/04/25 03:31:46;;;;;;;9.60;5.78;;;;;;;;;;5006971;28;20614;-76
2023/04/25 03:34:14;;;;;;;11.85;5.40;;;;;;;;;;4994144;28;20117;-77
2023/04/25 03:36:40;;;;;;;13.95;4.65;;;;;;;;;;4994748;28;20034;-76
2023/04/25 03:39:06;;;;;;;9.57;4.30;;;;;;;;;;4994159;28;20092;-76
2023/04/25 03:41:32;;;;;;;9.80;4.60;;;;;;;;;;4994703;28;20484;-78
2023/04/25 03:44:05;;;;;;;13.35;4.40;;;;;;;;;;5010627;28;20026;-77
2023/04/25 03:46:32;;;;;;;7.18;4.15;;;;;;;;;;4994928;28;20106;-78
2023/04/25 03:48:59;;;;;;;6.70;4.95;;;;;;;;;;4998842;28;20025;-76
2023/04/25 03:51:34;;;;;;;8.40;3.92;;;;;;;;;;5010550;28;20038;-76
2023/04/25 03:54:01;;;;;;;6.13;3.90;;;;;;;;;;4993844;28;20027;-76
2023/04/25 03:56:31;;;;;;;12.32;4.53;;;;;;;;;;4995700;28;20025;-75
2023/04/25 03:59:09;;;;;;;16.00;4.90;;;;;;;;;;4993763;28;20037;-78
2023/04/25 04:01:35;;;;;;;15.75;5.13;;;;;;;;;;4993521;28;20042;-77
2023/04/25 04:04:01;;;;;;;7.88;4.03;;;;;;;;;;4995599;28;20018;-79
2023/04/25 04:06:29;;;;;;;6.90;4.20;;;;;;;;;;5009915;28;20040;-77
2023/04/25 04:09:06;;;;;;;5.80;4.05;;;;;;;;;;4995106;28;20058;-76
2023/04/25 04:11:38;;;;;;;11.27;4.57;;;;;;;;;;5012088;28;20377;-80
2023/04/25 04:14:07;;;;;;;19.55;5.00;;;;;;;;;;4993311;28;20062;-78
2023/04/25 04:16:36;;;;;;;9.20;4.68;;;;;;;;;;4977022;28;20121;-78
2023/04/25 04:19:02;;;;;;;7.97;4.30;;;;;;;;;;4994347;28;20033;-77
2023/04/25 04:21:28;;;;;;;9.02;4.68;;;;;;;;;;5009870;28;20034;-78
2023/04/25 04:23:54;;;;;;;10.45;4.72;;;;;;;;;;4993263;28;20030;-77
2023/04/25 04:26:24;;;;;;;7.18;3.97;;;;;;;;;;4988775;28;20026;-78
2023/04/25 04:28:55;;;;;;;15.98;4.82;;;;;;;;;;4994389;28;20073;-77
2023/04/25 04:31:45;;;;;;;17.38;5.15;;;;;;;;;;5009559;28;20129;-77
2023/04/25 04:34:11;;;;;;;8.77;4.03;;;;;;;;;;5008962;28;20117;-78
2023/04/25 04:36:37;;;;;;;21.83;5.20;;;;;;;;;;5014360;28;20430;-78
2023/04/25 04:39:09;;;;;;;8.27;4.20;;;;;;;;;;4984220;28;20106;-79
2023/04/25 04:41:38;;;;;;;11.18;4.50;;;;;;;;;;5009281;28;20038;-78
2023/04/25 04:44:14;;;;;;;9.18;4.60;;;;;;;;;;4998746;28;20496;-78
2023/04/25 04:46:50;;;;;;;10.35;5.22;;;;;;;;;;4996563;28;20069;-78
2023/04/25 04:49:39;;;;;;;8.90;4.35;;;;;;;;;;5014221;28;20025;-78
2023/04/25 04:52:28;;;;;;;10.63;4.75;;;;;;;;;;4988267;28;20126;-80
2023/04/25 04:55:17;;;;;;;9.57;4.38;;;;;;;;;;4958409;28;20556;-79
2023/04/25 04:58:05;;;;;;;10.57;4.43;;;;;;;;;;4991198;28;20116;-79
2023/04/25 05:01:07;;;;;;;7.93;3.88;;;;;;;;;;4981687;28;20046;-78
2023/04/25 05:03:59;;;;;;;8.18;3.50;;;;;;;;;;4985093;28;20042;-78
2023/04/25 05:06:44;;;;;;;7.93;4.45;;;;;;;;;;4994794;28;20073;-78
2023/04/25 05:09:33;;;;;;;7.07;3.60;;;;;;;;;;4973567;28;20042;-78
2023/04/25 05:12:17;;;;;;;7.20;3.80;;;;;;;;;;4987253;28;20045;-77
2023/04/25 05:14:56;;;;;;;9.15;4.00;;;;;;;;;;4991773;28;20038;-78
2023/04/25 05:17:57;;;;;;;6.35;3.30;;;;;;;;;;4932734;29;20047;-78
2023/04/25 05:20:30;;;;;;;;;;;;;;;;;;4999432;28;20049;-79
2023/04/25 05:23:21;;;;;;;5.38;3.33;;;;;;;;;;4986276;28;19920;-76
2023/04/25 05:25:59;;;;;;;9.93;3.60;;;;;;;;;;4991761;28;20037;-78
2023/04/25 05:28:53;;;;;;;8.90;3.53;;;;;;;;;;4990982;28;20034;-78
2023/04/25 05:31:35;;;;;;;9.88;3.25;;;;;;;;;;5008709;28;20539;-77
2023/04/25 05:34:07;;;;;;;;;;;;;;;;;;5009641;28;20034;-78
2023/04/25 05:36:42;;;;;;;6.10;2.80;;;;;;;;;;4992934;28;19914;-78
2023/04/25 05:39:10;;;;;;;9.75;3.28;;;;;;;;;;4994391;28;20105;-79
2023/04/25 05:41:55;;;;;;;5.93;3.03;;;;;;;;;;4993778;28;20529;-79
2023/04/25 05:44:40;;;;;;;5.60;3.05;;;;;;;;;;4993866;28;20053;-77
2023/04/25 05:47:21;;;;;;;8.07;3.40;;;;;;;;;;5008347;28;20037;-77
2023/04/25 05:50:06;;;;;;;5.55;3.35;;;;;;;;;;4984947;28;20044;-77
2023/04/25 05:52:51;;;;;;;5.25;3.50;;;;;;;;;;5005914;28;20105;-77
2023/04/25 05:55:23;;;;;;;8.65;3.67;;;;;;;;;;4976465;28;20049;-78
2023/04/25 05:57:50;;;;;;;11.82;3.55;;;;;;;;;;4992801;28;20460;-76
2023/04/25 06:00:16;;;;;;;6.80;3.40;;;;;;;;;;4991063;28;20038;-78
2023/04/25 06:02:44;;;;;;;8.38;3.83;;;;;;;;;;4992957;28;20491;-77
2023/04/25 06:05:12;;;;;;;10.57;4.78;;;;;;;;;;5007874;28;20340;-76
2023/04/25 06:07:38;;;;;;;11.52;4.20;;;;;;;;;;5007729;28;20034;-77
2023/04/25 06:10:06;;;;;;;12.05;4.60;;;;;;;;;;4992606;28;20045;-76
2023/04/25 06:12:33;;;;;;;10.35;4.25;;;;;;;;;;5007881;28;20043;-78
2023/04/25 06:15:00;;;;;;;7.63;3.63;;;;;;;;;;5007305;28;20030;-77
2023/04/25 06:17:27;;;;;;;9.32;3.95;;;;;;;;;;5007712;28;20150;-76
2023/04/25 06:19:53;;;;;;;6.82;2.97;;;;;;;;;;4991344;28;20454;-77
2023/04/25 06:22:20;;;;;;;5.93;3.65;;;;;;;;;;4992883;28;20031;-77
2023/04/25 06:24:48;;;;;;;6.40;3.40;;;;;;;;;;4992383;28;20026;-78
2023/04/25 06:27:15;;;;;;;7.28;3.10;;;;;;;;;;5008280;28;20030;-77
2023/04/25 06:29:41;;;;;;;8.68;3.42;;;;;;;;;;5007319;28;20055;-76
2023/04/25 06:32:09;;;;;;;6.80;3.22;;;;;;;;;;4990727;28;20034;-77
2023/04/25 06:34:35;;;;;;;6.65;3.75;;;;;;;;;;4991749;28;20113;-75
2023/04/25 06:37:01;;;;;;;8.77;3.28;;;;;;;;;;4974893;28;20040;-77
2023/04/25 06:39:29;;;;;;;6.38;3.20;;;;;;;;;;5007421;28;20473;-77
2023/04/25 06:41:55;;;;;;;6.18;3.85;;;;;;;;;;4992096;28;20062;-77
2023/04/25 06:44:39;;;;;;;5.32;3.05;;;;;;;;;;4992444;28;20038;-77
2023/04/25 06:47:07;;;;;;;7.18;3.50;;;;;;;;;;5006858;28;20026;-78
2023/04/25 06:49:33;;;;;;;6.97;3.80;;;;;;;;;;4990543;28;20029;-79
2023/04/25 06:51:59;;;;;;;11.98;4.40;;;;;;;;;;5006950;28;20042;-78
2023/04/25 06:54:29;;;;;;;6.30;3.28;;;;;;;;;;4971197;28;20093;-77
2023/04/25 06:57:02;;;;;;;6.88;3.50;;;;;;;;;;5007286;28;20042;-78
2023/04/25 06:59:28;;;;;;;9.23;3.83;;;;;;;;;;5007470;28;20038;-79
2023/04/25 07:01:55;;;;;;;21.05;4.90;;;;;;;;;;4990966;28;20532;-79
2023/04/25 07:04:24;;;;;;;7.45;3.40;;;;;;;;;;4990888;28;20041;-79
2023/04/25 07:06:58;;;;;;;;;;;;;;;;;;4991456;28;20515;-78
2023/04/25 07:09:34;;;;;;;6.80;3.17;;;;;;;;;;4992608;28;20010;-80
2023/04/25 07:12:01;;;;;;;5.28;3.40;;;;;;;;;;4990878;28;20444;-79
2023/04/25 07:14:27;;;;;;;12.75;3.40;;;;;;;;;;4990809;28;20448;-79
2023/04/25 07:16:56;;;;;;;4.97;2.97;;;;;;;;;;4992235;28;20038;-79
2023/04/25 07:19:26;;;;;;;6.32;3.30;;;;;;;;;;4991230;28;20101;-76
2023/04/25 07:21:55;;;;;;;7.35;3.95;;;;;;;;;;5007200;28;20465;-78
2023/04/25 07:24:21;;;;;;;5.63;3.05;;;;;;;;;;4991255;28;20038;-76
2023/04/25 07:26:50;;;;;;;9.63;3.65;;;;;;;;;;4991440;28;20043;-78
2023/04/25 07:29:30;;;;;;;7.95;3.47;;;;;;;;;;4990831;28;20035;-76
2023/04/25 07:31:58;;;;;;;12.98;3.72;;;;;;;;;;5006515;28;20065;-77
2023/04/25 07:34:24;;;;;;;5.53;3.60;;;;;;;;;;5006846;28;20073;-77
2023/04/25 07:36:52;;;;;;;10.77;3.72;;;;;;;;;;4990874;28;20054;-78
2023/04/25 07:39:18;;;;;;;6.72;3.70;;;;;;;;;;4989997;28;20027;-77
2023/04/25 07:41:45;;;;;;;10.43;4.00;;;;;;;;;;5007455;28;20077;-79
2023/04/25 07:44:22;;;;;;;6.50;3.58;;;;;;;;;;4994823;28;20046;-78
2023/04/25 07:46:48;;;;;;;11.88;3.47;;;;;;;;;;5010182;28;20061;-80
2023/04/25 07:49:15;;;;;;;9.07;4.38;;;;;;;;;;4995739;28;20030;-80
2023/04/25 07:51:43;;;;;;;8.20;3.60;;;;;;;;;;5009932;28;20069;-80
2023/04/25 07:54:15;;;;;;;7.18;3.60;;;;;;;;;;4992434;28;20034;-79
2023/04/25 07:56:47;;;;;;;13.90;4.20;;;;;;;;;;5010080;28;20035;-78
2023/04/25 07:59:14;;;;;;;7.15;3.70;;;;;;;;;;5009506;28;20039;-78
2023/04/25 08:01:42;;;;;;;7.32;3.70;;;;;;;;;;4977890;28;20026;-78
2023/04/25 08:04:10;;;;;;;9.60;3.90;;;;;;;;;;4995134;28;20034;-79
2023/04/25 08:07:11;;;;;;;7.75;3.95;;;;;;;;;;4984423;28;20392;-77
2023/04/25 08:09:47;;;;;;;6.43;3.78;;;;;;;;;;4978411;28;20445;-78
2023/04/25 08:12:22;;;;;;;6.03;3.63;;;;;;;;;;4994915;28;20085;-78
2023/04/25 08:14:48;;;;;;;9.88;4.03;;;;;;;;;;4993177;28;20117;-78
2023/04/25 08:17:15;;;;;;;10.32;3.40;;;;;;;;;;4993086;28;20479;-77
2023/04/25 08:19:45;;;;;;;6.30;3.10;;;;;;;;;;4994271;28;20042;-77
2023/04/25 08:22:20;;;;;;;11.13;3.92;;;;;;;;;;5010035;28;20411;-77
2023/04/25 08:24:52;;;;;;;8.80;3.40;;;;;;;;;;4994233;28;20122;-77
2023/04/25 08:27:20;;;;;;;8.55;3.38;;;;;;;;;;5009990;28;20061;-77
2023/04/25 08:29:47;;;;;;;6.18;3.40;;;;;;;;;;4993207;28;20038;-77
2023/04/25 08:32:14;;;;;;;10.75;3.70;;;;;;;;;;5009887;28;20038;-77
2023/04/25 08:34:53;;;;;;;4.95;2.97;;;;;;;;;;5008304;28;20488;-78
2023/04/25 08:37:20;;;;;;;10.25;3.17;;;;;;;;;;5009297;28;20030;-77
2023/04/25 08:40:12;;;;;;;4.68;2.67;;;;;;;;;;4994452;28;20404;-78
2023/04/25 08:43:03;;;;;;;6.88;3.00;;;;;;;;;;5009252;28;20057;-77
2023/04/25 08:45:32;;;;;;;5.07;3.00;;;;;;;;;;4994391;28;20079;-78
2023/04/25 08:47:58;;;;;;;5.63;2.58;;;;;;;;;;4993086;28;20046;-77
2023/04/25 08:50:26;;;;;;;6.90;2.67;;;;;;;;;;4991524;28;20041;-77
2023/04/25 08:52:55;;;;;;;4.80;2.20;;;;;;;;;;4992520;28;20454;-77
2023/04/25 08:55:23;;;;;;;7.45;3.17;;;;;;;;;;4991492;28;20113;-78
2023/04/25 08:57:56;;;;;;;6.88;2.67;;;;;;;;;;4976855;28;20030;-77
2023/04/25 09:00:22;;;;;;;6.10;2.47;;;;;;;;;;4992359;28;20188;-77
2023/04/25 09:02:48;;;;;;;4.40;1.80;;;;;;;;;;4976071;28;20030;-76
2023/04/25 09:05:16;;;;;;;4.55;2.03;;;;;;;;;;4993012;28;20037;-77
2023/04/25 09:07:45;;;;;;;8.75;2.60;;;;;;;;;;4992304;28;20033;-77
2023/04/25 09:10:11;;;;;;;3.97;2.42;;;;;;;;;;5006228;28;20046;-78
2023/04/25 09:12:39;;;;;;;4.95;2.58;;;;;;;;;;5008519;28;20057;-77
2023/04/25 09:15:10;;;;;;;8.02;2.90;;;;;;;;;;4997572;28;20057;-77
2023/04/25 09:18:11;;;;;;;6.18;2.70;;;;;;;;;;4991725;28;20031;-78
2023/04/25 09:20:43;;;;;;;5.82;2.28;;;;;;;;;;4992961;28;20045;-78
2023/04/25 09:23:10;;;;;;;7.00;1.88;;;;;;;;;;4993600;28;20109;-77
2023/04/25 09:25:43;;;;;;;4.47;1.63;;;;;;;;;;4975721;28;20101;-77
2023/04/25 09:28:10;;;;;;;4.80;1.90;;;;;;;;;;5008325;28;20037;-78
2023/04/25 09:30:36;;;;;;;4.25;1.90;;;;;;;;;;4993370;28;20252;-78
2023/04/25 09:33:12;;;;;;;3.95;1.60;;;;;;;;;;5007992;28;20042;-76
2023/04/25 09:35:45;;;;;;;5.43;1.63;;;;;;;;;;4992209;28;20096;-77
2023/04/25 09:38:22;;;;;;;4.40;1.75;;;;;;;;;;4986014;28;20030;-77
2023/04/25 09:40:56;;;;;;;4.00;1.73;;;;;;;;;;5008164;28;20451;-78
2023/04/25 09:43:46;;;;;;;3.97;2.10;;;;;;;;;;4993619;28;20061;-76
2023/04/25 09:46:13;;;;;;;3.45;1.73;;;;;;;;;;4991357;28;20046;-78
2023/04/25 09:48:50;;;;;;;3.55;1.60;;;;;;;;;;4991254;28;20641;-78
2023/04/25 09:51:25;;;;;;;5.90;1.60;;;;;;;;;;5006280;28;20385;-77
2023/04/25 09:53:51;;;;;;;6.82;1.98;;;;;;;;;;5007777;28;20030;-78
2023/04/25 09:56:31;;;;;;;6.82;2.05;;;;;;;;;;5007847;28;20117;-79
2023/04/25 09:58:58;;;;;;;4.85;1.80;;;;;;;;;;4989780;28;20034;-78
2023/04/25 10:01:26;;;;;;;3.30;1.80;;;;;;;;;;4975257;28;20169;-78
2023/04/25 10:04:06;;;;;;;4.80;2.03;;;;;;;;;;4991763;28;20042;-77
2023/04/25 10:06:52;;;;;;;4.00;1.80;;;;;;;;;;4992214;28;20053;-78
2023/04/25 10:09:22;;;;;;;5.20;2.20;;;;;;;;;;4997464;28;20022;-78
2023/04/25 10:11:49;;;;;;;5.70;2.03;;;;;;;;;;4991427;28;20034;-78
2023/04/25 10:14:16;;;;;;;6.38;2.40;;;;;;;;;;4992373;28;20026;-78
2023/04/25 10:16:43;;;;;;;4.80;1.60;;;;;;;;;;4992581;28;20034;-78
2023/04/25 10:19:10;;;;;;;2.75;1.52;;;;;;;;;;4991614;28;20030;-77
2023/04/25 10:22:00;;;;;;;4.20;1.52;;;;;;;;;;4992558;28;20045;-78
2023/04/25 10:24:31;;;;;;;3.70;1.52;;;;;;;;;;4959513;28;20389;-79
2023/04/25 10:26:59;;;;;;;7.15;2.00;;;;;;;;;;5007911;28;20038;-77
2023/04/25 10:29:26;;;;;;;7.13;2.15;;;;;;;;;;4992743;28;20042;-80
2023/04/25 10:31:52;;;;;;;7.88;2.10;;;;;;;;;;4991705;28;20042;-80
2023/04/25 10:34:19;;;;;;;4.35;2.08;;;;;;;;;;4991953;28;20488;-79
2023/04/25 10:36:52;;;;;;;5.57;2.83;;;;;;;;;;4992752;28;20042;-78
2023/04/25 10:39:27;;;;;;;3.95;1.83;;;;;;;;;;4991099;28;20054;-77
2023/04/25 10:41:56;;;;;;;5.90;2.10;;;;;;;;;;4990959;28;20125;-78
2023/04/25 10:44:29;;;;;;;6.05;1.90;;;;;;;;;;5006739;28;20522;-77
2023/04/25 10:46:57;;;;;;;8.18;2.25;;;;;;;;;;4992124;28;20037;-79
2023/04/25 10:49:43;;;;;;;3.90;2.22;;;;;;;;;;4992634;28;20026;-79
2023/04/25 10:52:12;;;;;;;8.30;3.88;;;;;;;;;;4995055;28;20034;-77
2023/04/25 10:54:52;;;;;;;6.07;2.03;;;;;;;;;;4992455;28;20030;-77
2023/04/25 10:57:39;;;;;;;7.70;2.35;;;;;;;;;;4991260;28;20169;-77
2023/04/25 11:00:15;;;;;;;6.93;2.95;;;;;;;;;;4992368;28;20185;-79
2023/04/25 11:02:53;;;;;;;6.82;2.55;;;;;;;;;;4992520;28;20041;-79
2023/04/25 11:05:29;;;;;;;5.68;2.45;;;;;;;;;;4991718;28;20042;-77
2023/04/25 11:07:59;;;;;;;6.68;2.70;;;;;;;;;;4990582;28;20093;-79
2023/04/25 11:10:34;;;;;;;5.88;1.92;;;;;;;;;;4992120;28;20025;-77
2023/04/25 11:13:01;;;;;;;9.68;2.60;;;;;;;;;;4988265;28;20080;-78
2023/04/25 11:15:28;;;;;;;3.65;1.40;;;;;;;;;;4992265;28;20113;-79
2023/04/25 11:17:55;;;;;;;4.10;1.73;;;;;;;;;;4989040;28;20065;-79
2023/04/25 11:20:22;;;;;;;5.47;1.80;;;;;;;;;;4994558;28;20027;-77
2023/04/25 11:22:48;;;;;;;5.25;1.80;;;;;;;;;;4993233;28;20043;-78
2023/04/25 11:25:16;;;;;;;6.13;1.95;;;;;;;;;;4991976;28;20047;-78
2023/04/25 11:27:57;;;;;;;9.98;1.75;;;;;;;;;;4996124;28;20059;-78
2023/04/25 11:30:24;;;;;;;3.92;2.10;;;;;;;;;;4988284;28;20026;-78
2023/04/25 11:32:53;;;;;;;6.82;2.33;;;;;;;;;;4995498;28;20502;-79
2023/04/25 11:35:22;;;;;;;7.22;2.75;;;;;;;;;;4997266;28;20110;-78
2023/04/25 11:37:51;;;;;;;9.57;2.00;;;;;;;;;;4994738;28;20034;-77
2023/04/25 11:40:17;;;;;;;5.20;1.95;;;;;;;;;;4993985;28;20112;-77
2023/04/25 11:42:48;;;;;;;5.13;2.17;;;;;;;;;;4988924;28;20484;-78
2023/04/25 11:45:14;;;;;;;4.72;1.95;;;;;;;;;;4994269;28;20438;-77
2023/04/25 11:47:40;;;;;;;6.15;2.17;;;;;;;;;;4987682;28;20047;-78
2023/04/25 11:50:08;;;;;;;4.65;1.65;;;;;;;;;;4993395;28;20033;-79
2023/04/25 11:52:41;;;;;;;7.13;2.08;;;;;;;;;;4993621;28;20496;-76
2023/04/25 11:55:13;;;;;;;4.93;2.00;;;;;;;;;;4990934;28;20125;-80
2023/04/25 11:57:41;;;;;;;7.05;2.00;;;;;;;;;;4992065;28;20085;-78
2023/04/25 12:00:12;;;;;;;4.88;1.92;;;;;;;;;;4991549;28;20026;-77
2023/04/25 12:02:51;;;;;;;7.97;2.20;;;;;;;;;;4989858;28;20042;-78
2023/04/25 12:05:19;;;;;;;8.10;2.58;;;;;;;;;;4990572;28;20054;-80
2023/04/25 12:07:47;;;;;;;8.65;2.13;;;;;;;;;;4993302;28;20029;-78
2023/04/25 12:10:15;;;;;;;2.85;1.70;;;;;;;;;;4996130;28;20404;-78
2023/04/25 12:12:48;;;;;;;7.35;1.75;;;;;;;;;;4993255;28;20523;-79
2023/04/25 12:15:24;;;;;;;4.85;2.00;;;;;;;;;;4997883;28;20046;-79
2023/04/25 12:17:54;;;;;;;5.78;2.60;;;;;;;;;;4991047;28;20038;-78
2023/04/25 12:20:23;;;;;;;3.83;1.90;;;;;;;;;;4989631;28;20416;-78
2023/04/25 12:22:50;;;;;;;5.00;2.15;;;;;;;;;;4992990;28;20065;-77
2023/04/25 12:25:54;;;;;;;3.58;1.77;;;;;;;;;;4993541;28;20022;-78
2023/04/25 12:28:30;;;;;;;6.80;1.90;;;;;;;;;;4908676;29;20032;-78
2023/04/25 12:31:05;;;;;;;5.03;1.75;;;;;;;;;;4920590;29;20285;-81
2023/04/25 12:33:33;;;;;;;5.78;2.10;;;;;;;;;;4954510;28;20050;-79
2023/04/25 12:36:00;;;;;;;5.78;2.10;;;;;;;;;;4991357;28;20022;-79
2023/04/25 12:38:29;;;;;;;12.57;3.55;;;;;;;;;;4992328;28;20125;-77
2023/04/25 12:40:56;;;;;;;12.65;2.25;;;;;;;;;;4993987;28;20026;-78
2023/04/25 12:43:22;;;;;;;7.25;2.10;;;;;;;;;;4988177;28;20030;-78
2023/04/25 12:45:51;;;;;;;5.80;1.90;;;;;;;;;;4993691;28;20054;-81
2023/04/25 12:48:19;;;;;;;10.05;2.55;;;;;;;;;;4990576;28;20061;-77
2023/04/25 12:50:48;;;;;;;6.22;2.15;;;;;;;;;;4993383;28;20030;-78
2023/04/25 12:53:16;;;;;;;7.63;4.15;;;;;;;;;;4992650;28;20037;-78
2023/04/25 12:55:42;;;;;;;6.35;2.20;;;;;;;;;;4987121;28;20389;-78
2023/04/25 12:58:12;;;;;;;4.15;2.38;;;;;;;;;;5011173;28;20041;-77
2023/04/25 13:00:41;;;;;;;8.35;1.80;;;;;;;;;;4990847;28;20038;-77
2023/04/25 13:03:08;;;;;;;4.57;1.70;;;;;;;;;;4990883;28;20023;-77
2023/04/25 13:05:43;;;;;;;8.18;2.13;;;;;;;;;;4990017;28;20050;-82
2023/04/25 13:08:12;;;;;;;7.53;2.00;;;;;;;;;;4998343;28;20041;-78
2023/04/25 13:10:41;;;;;;;7.40;2.35;;;;;;;;;;4989364;28;20023;-78
2023/04/25 13:13:08;;;;;;;10.45;2.13;;;;;;;;;;4992102;28;20100;-77
2023/04/25 13:15:35;;;;;;;7.82;2.00;;;;;;;;;;4985899;28;20118;-77
2023/04/25 13:18:01;;;;;;;4.93;2.13;;;;;;;;;;4993843;28;20081;-76
2023/04/25 13:20:27;;;;;;;7.40;2.40;;;;;;;;;;4987552;28;20034;-78
2023/04/25 13:22:53;;;;;;;10.43;2.40;;;;;;;;;;4990575;28;20042;-77
2023/04/25 13:25:19;;;;;;;14.45;2.75;;;;;;;;;;5000295;28;20505;-77
2023/04/25 13:27:46;;;;;;;5.90;2.38;;;;;;;;;;5017600;28;20065;-77
2023/04/25 13:30:13;;;;;;;5.00;1.90;;;;;;;;;;4993660;28;20018;-77
2023/04/25 13:32:39;;;;;;;4.55;2.03;;;;;;;;;;5008046;28;20046;-78
2023/04/25 13:35:11;;;;;;;6.78;2.42;;;;;;;;;;5001444;28;20034;-77
2023/04/25 13:37:37;;;;;;;7.25;2.03;;;;;;;;;;5000395;28;20068;-78
2023/04/25 13:40:09;;;;;;;6.22;1.95;;;;;;;;;;5001401;28;20059;-77
2023/04/25 13:42:36;;;;;;;6.95;2.17;;;;;;;;;;4999817;28;20030;-76
2023/04/25 13:45:02;;;;;;;7.57;2.20;;;;;;;;;;4993880;28;20080;-78
2023/04/25 13:47:30;;;;;;;12.43;2.33;;;;;;;;;;4993575;28;20073;-76
2023/04/25 13:49:56;;;;;;;10.82;2.53;;;;;;;;;;5001495;28;20050;-78
2023/04/25 13:52:28;;;;;;;5.53;2.20;;;;;;;;;;5005884;28;20510;-79
2023/04/25 13:54:55;;;;;;;7.75;2.10;;;;;;;;;;5004098;28;20046;-80
2023/04/25 13:57:21;;;;;;;6.32;2.50;;;;;;;;;;4994483;28;20052;-79
2023/04/25 13:59:47;;;;;;;7.72;2.60;;;;;;;;;;5010350;28;20042;-79
2023/04/25 14:02:13;;;;;;;5.63;2.20;;;;;;;;;;5000360;28;20162;-78
2023/04/25 14:04:38;;;;;;;8.32;2.60;;;;;;;;;;4997077;28;20030;-80
2023/04/25 14:07:04;;;;;;;7.13;2.20;;;;;;;;;;4989336;28;20058;-79
2023/04/25 14:09:30;;;;;;;7.45;2.13;;;;;;;;;;4992850;28;20038;-78
2023/04/25 14:11:56;;;;;;;8.13;2.33;;;;;;;;;;4992974;28;20045;-78
2023/04/25 14:14:23;;;;;;;8.95;2.40;;;;;;;;;;4997745;28;20480;-77
2023/04/25 14:16:50;;;;;;;7.22;2.25;;;;;;;;;;5013211;28;20021;-79
2023/04/25 14:19:18;;;;;;;5.65;2.17;;;;;;;;;;4999858;28;20034;-77
2023/04/25 14:21:44;;;;;;;7.72;2.47;;;;;;;;;;4997371;28;20480;-78
2023/04/25 14:24:14;;;;;;;7.78;2.35;;;;;;;;;;4999649;28;20038;-78
2023/04/25 14:26:55;;;;;;;9.55;2.45;;;;;;;;;;4999385;28;20034;-78
2023/04/25 14:29:21;;;;;;;7.80;1.90;;;;;;;;;;5000247;28;20026;-80
2023/04/25 14:31:47;;;;;;;5.93;1.92;;;;;;;;;;5001099;28;20022;-79
2023/04/25 14:34:13;;;;;;;8.27;2.25;;;;;;;;;;4989206;28;20022;-77
2023/04/25 14:36:40;;;;;;;5.68;2.15;;;;;;;;;;4990821;28;20409;-78
2023/04/25 14:39:06;;;;;;;6.70;2.40;;;;;;;;;;4990630;28;20484;-76
2023/04/25 14:41:34;;;;;;;6.72;2.22;;;;;;;;;;5001660;28;20041;-77
2023/04/25 14:44:00;;;;;;;5.75;2.13;;;;;;;;;;4993918;28;20061;-79
2023/04/25 14:46:26;;;;;;;5.38;2.05;;;;;;;;;;4993156;28;20064;-77
2023/04/25 14:48:52;;;;;;;8.18;2.20;;;;;;;;;;4993450;28;20133;-78
2023/04/25 14:51:18;;;;;;;5.55;2.20;;;;;;;;;;4993654;28;20030;-78
2023/04/25 14:53:44;;;;;;;10.43;1.80;;;;;;;;;;4990835;28;20061;-79
2023/04/25 14:56:12;;;;;;;5.75;1.67;;;;;;;;;;4996452;28;20034;-77
2023/04/25 14:58:41;;;;;;;4.25;1.95;;;;;;;;;;4989866;28;20488;-78